Terminal Aerodrome Forecast
Issued by NWS

Home | Current Version | Previous Version | Text Only | Print | Product List | Glossary On
Versions: 1 2 3 4 5 6 7 8 9 10 11 12 13 14 15 16 17 18
000
FTUS41 KCAR 231305 AAA
TAFFVE
TAF AMD
KFVE 231305Z 2313/2412 33012G24KT P6SM BKN050
     FM231500 30017G32KT P6SM BKN060
     FM232200 28013G21KT P6SM SCT060
     FM240500 23009KT P6SM BKN080=

USA.gov is the U.S. government's official web portal to all federal, state and local government web resources and services.